createdAt,value
2023-04-21T00:01:39.551Z,38.81
2023-04-21T00:04:07.373Z,38.71
2023-04-21T00:06:34.258Z,39.18
2023-04-21T00:09:00.927Z,39.20
2023-04-21T00:11:27.598Z,39.19
2023-04-21T00:13:54.272Z,39.22
2023-04-21T00:16:20.963Z,39.36
2023-04-21T00:18:48.089Z,39.12
2023-04-21T00:21:14.769Z,39.24
2023-04-21T00:23:41.412Z,39.44
2023-04-21T00:26:08.093Z,39.23
2023-04-21T00:28:34.742Z,39.55
2023-04-21T00:31:01.459Z,39.28
2023-04-21T00:33:28.175Z,39.48
2023-04-21T00:35:54.869Z,39.60
2023-04-21T00:38:21.564Z,39.75
2023-04-21T00:40:48.258Z,39.65
2023-04-21T00:43:14.963Z,39.52
2023-04-21T00:45:41.694Z,40.12
2023-04-21T00:48:08.360Z,40.24
2023-04-21T00:50:35.169Z,40.21
2023-04-21T00:53:01.848Z,40.30
2023-04-21T00:55:29.258Z,40.65
2023-04-21T00:57:56.707Z,40.41
2023-04-21T01:00:23.617Z,40.39
2023-04-21T01:02:50.846Z,40.58
2023-04-21T01:05:18.319Z,40.72
2023-04-21T01:07:45.699Z,40.60
2023-04-21T01:10:12.496Z,40.58
2023-04-21T01:12:43.686Z,40.94
2023-04-21T01:15:12.350Z,41.20
2023-04-21T01:17:39.075Z,41.17
2023-04-21T01:20:09.378Z,41.63
2023-04-21T01:22:40.522Z,41.91
2023-04-21T01:25:08.571Z,41.89
2023-04-21T01:27:35.365Z,41.42
2023-04-21T01:30:03.903Z,41.77
2023-04-21T01:32:31.585Z,41.63
2023-04-21T01:34:59.480Z,41.63
2023-04-21T01:37:29.477Z,41.56
2023-04-21T01:39:58.140Z,41.25
2023-04-21T01:42:27.736Z,40.78
2023-04-21T01:44:55.010Z,41.36
2023-04-21T01:47:23.198Z,41.25
2023-04-21T01:49:49.959Z,41.41
2023-04-21T01:52:16.948Z,41.39
2023-04-21T01:54:43.700Z,41.42
2023-04-21T01:57:10.575Z,41.64
2023-04-21T01:59:37.534Z,42.42
2023-04-21T02:02:04.652Z,42.35
2023-04-21T02:04:31.661Z,42.07
2023-04-21T02:06:58.459Z,42.46
2023-04-21T02:09:25.291Z,41.92
2023-04-21T02:11:52.096Z,42.28
2023-04-21T02:14:18.772Z,42.49
2023-04-21T02:16:45.543Z,42.56
2023-04-21T02:19:12.326Z,43.04
2023-04-21T02:21:38.979Z,42.98
2023-04-21T02:24:06.025Z,42.94
2023-04-21T02:26:32.733Z,42.72
2023-04-21T02:28:59.623Z,42.89
2023-04-21T02:31:26.359Z,43.19
2023-04-21T02:33:54.625Z,43.04
2023-04-21T02:36:21.631Z,43.24
2023-04-21T02:38:48.259Z,43.40
2023-04-21T02:41:14.945Z,43.84
2023-04-21T02:43:41.782Z,43.59
2023-04-21T02:46:09.661Z,43.79
2023-04-21T02:48:36.907Z,44.01
2023-04-21T02:51:04.542Z,43.87
2023-04-21T02:53:31.735Z,44.19
2023-04-21T02:55:58.434Z,44.04
2023-04-21T02:58:25.349Z,43.86
2023-04-21T03:00:52.089Z,43.98
2023-04-21T03:03:19.061Z,43.72
2023-04-21T03:05:46.089Z,44.29
2023-04-21T03:08:12.880Z,43.94
2023-04-21T03:10:39.797Z,44.22
2023-04-21T03:13:06.458Z,44.44
2023-04-21T03:15:33.385Z,44.23
2023-04-21T03:18:00.087Z,44.35
2023-04-21T03:20:26.770Z,44.63
2023-04-21T03:22:54.337Z,44.59
2023-04-21T03:25:21.095Z,44.72
2023-04-21T03:27:47.746Z,44.84
2023-04-21T03:30:14.437Z,44.64
2023-04-21T03:32:41.247Z,44.47
2023-04-21T03:35:08.130Z,44.54
2023-04-21T03:37:34.794Z,44.56
2023-04-21T03:40:01.479Z,44.57
2023-04-21T03:42:29.798Z,44.69
2023-04-21T03:44:56.469Z,44.96
2023-04-21T03:47:23.110Z,45.32
2023-04-21T03:49:49.760Z,45.25
2023-04-21T03:52:16.481Z,45.16
2023-04-21T03:54:44.513Z,45.84
2023-04-21T03:57:11.187Z,46.42
2023-04-21T03:59:37.990Z,46.29
2023-04-21T04:02:04.728Z,46.57
2023-04-21T04:04:32.947Z,46.30
2023-04-21T04:06:59.955Z,46.54
2023-04-21T04:09:26.726Z,46.93
2023-04-21T04:11:53.463Z,47.14
2023-04-21T04:14:20.100Z,46.62
2023-04-21T04:16:46.744Z,46.83
2023-04-21T04:19:13.682Z,47.39
2023-04-21T04:21:40.351Z,47.45
2023-04-21T04:24:08.383Z,47.23
2023-04-21T04:26:35.686Z,46.82
2023-04-21T04:29:02.488Z,47.06
2023-04-21T04:31:32.661Z,46.86
2023-04-21T04:33:59.426Z,46.32
2023-04-21T04:36:26.075Z,46.87
2023-04-21T04:38:52.773Z,46.71
2023-04-21T04:41:21.058Z,46.96
2023-04-21T04:43:47.737Z,46.73
2023-04-21T04:46:14.509Z,47.00
2023-04-21T04:48:41.392Z,46.85
2023-04-21T04:51:08.059Z,47.02
2023-04-21T04:53:34.710Z,46.69
2023-04-21T04:56:01.658Z,47.22
2023-04-21T04:58:28.362Z,46.51
2023-04-21T05:00:55.111Z,46.85
2023-04-21T05:03:21.839Z,47.16
2023-04-21T05:05:48.716Z,46.64
2023-04-21T05:08:17.800Z,46.67
2023-04-21T05:10:44.883Z,46.43
2023-04-21T05:13:11.771Z,46.62
2023-04-21T05:15:38.439Z,46.25
2023-04-21T05:18:05.276Z,46.59
2023-04-21T05:20:32.009Z,46.34
2023-04-21T05:22:58.644Z,46.14
2023-04-21T05:25:25.502Z,46.05
2023-04-21T05:27:52.149Z,46.02
2023-04-21T05:30:18.795Z,46.17
2023-04-21T05:32:45.624Z,46.12
2023-04-21T05:35:12.409Z,45.92
2023-04-21T05:37:39.042Z,45.95
2023-04-21T05:40:06.294Z,46.09
2023-04-21T05:42:33.013Z,45.74
2023-04-21T05:44:59.757Z,45.95
2023-04-21T05:47:26.542Z,45.95
2023-04-21T05:49:54.080Z,45.73
2023-04-21T05:52:24.226Z,45.96
2023-04-21T05:54:51.028Z,46.20
2023-04-21T05:57:17.928Z,46.24
2023-04-21T05:59:44.785Z,46.32
2023-04-21T06:02:12.418Z,46.37
2023-04-21T06:04:39.490Z,46.65
2023-04-21T06:07:13.055Z,46.48
2023-04-21T06:09:41.243Z,46.41
2023-04-21T06:12:07.938Z,46.61
2023-04-21T06:14:34.624Z,46.61
2023-04-21T06:17:01.270Z,46.64
2023-04-21T06:19:27.952Z,46.68
2023-04-21T06:21:54.845Z,46.46
2023-04-21T06:24:25.603Z,47.25
2023-04-21T06:26:53.318Z,46.71
2023-04-21T06:29:21.028Z,46.78
2023-04-21T06:31:47.944Z,47.13
2023-04-21T06:34:14.829Z,47.00
2023-04-21T06:36:41.589Z,47.15
2023-04-21T06:39:08.352Z,46.76
2023-04-21T06:41:35.095Z,47.00
2023-04-21T06:44:01.924Z,47.04
2023-04-21T06:46:28.867Z,47.26
2023-04-21T06:48:55.924Z,47.18
2023-04-21T06:51:22.770Z,47.01
2023-04-21T06:53:50.162Z,47.16
2023-04-21T06:56:16.901Z,47.13
2023-04-21T06:58:43.694Z,47.19
2023-04-21T07:01:10.460Z,47.16
2023-04-21T07:03:37.307Z,46.94
2023-04-21T07:06:04.389Z,47.02
2023-04-21T07:08:31.186Z,46.98
2023-04-21T07:10:57.879Z,46.80
2023-04-21T07:13:24.716Z,47.02
2023-04-21T07:15:52.022Z,47.06
2023-04-21T07:18:18.826Z,46.53
2023-04-21T07:20:45.763Z,46.60
2023-04-21T07:23:12.545Z,46.74
2023-04-21T07:25:39.261Z,46.41
2023-04-21T07:28:06.600Z,46.43
2023-04-21T07:30:33.309Z,46.12
2023-04-21T07:33:00.735Z,45.94
2023-04-21T07:35:27.561Z,46.15
2023-04-21T07:37:54.354Z,45.77
2023-04-21T07:40:21.054Z,45.56
2023-04-21T07:42:47.887Z,45.89
2023-04-21T07:45:14.654Z,45.63
2023-04-21T07:47:41.469Z,45.54
2023-04-21T07:50:08.963Z,45.65
2023-04-21T07:52:36.073Z,45.22
2023-04-21T07:55:02.932Z,45.13
2023-04-21T07:57:31.924Z,45.05
2023-04-21T07:59:58.592Z,44.80
2023-04-21T08:02:25.507Z,44.72
2023-04-21T08:04:52.445Z,44.74
2023-04-21T08:07:19.191Z,44.44
2023-04-21T08:09:45.992Z,44.05
2023-04-21T08:12:12.689Z,44.05
2023-04-21T08:14:40.399Z,44.08
2023-04-21T08:17:07.085Z,44.08
2023-04-21T08:19:33.802Z,44.33
2023-04-21T08:22:00.523Z,44.36
2023-04-21T08:24:27.289Z,43.31
2023-04-21T08:26:53.970Z,43.20
2023-04-21T08:29:20.941Z,43.10
2023-04-21T08:31:47.738Z,43.06
2023-04-21T08:34:14.722Z,42.61
2023-04-21T08:36:42.847Z,41.83
2023-04-21T08:39:09.680Z,41.55
2023-04-21T08:41:39.816Z,41.22
2023-04-21T08:44:07.047Z,40.91
2023-04-21T08:46:35.144Z,40.92
2023-04-21T08:49:03.368Z,40.51
2023-04-21T08:51:31.877Z,40.42
2023-04-21T08:53:58.700Z,40.31
2023-04-21T08:56:26.363Z,40.22
2023-04-21T08:58:53.929Z,40.47
2023-04-21T09:01:20.818Z,40.21
2023-04-21T09:03:47.684Z,40.07
2023-04-21T09:06:14.654Z,39.75
2023-04-21T09:08:53.334Z,39.89
2023-04-21T09:11:20.025Z,39.44
2023-04-21T09:13:46.745Z,39.47
2023-04-21T09:16:20.309Z,38.63
2023-04-21T09:18:47.532Z,37.55
2023-04-21T09:21:16.468Z,37.39
2023-04-21T09:23:52.192Z,37.26
2023-04-21T09:26:21.410Z,37.35
2023-04-21T09:28:49.650Z,36.91
2023-04-21T09:31:21.623Z,37.19
2023-04-21T09:33:57.705Z,37.31
2023-04-21T09:36:31.028Z,38.03
2023-04-21T09:39:29.034Z,37.96
2023-04-21T09:41:49.881Z,37.76
2023-04-21T09:44:18.178Z,37.32
2023-04-21T09:46:48.659Z,37.43
2023-04-21T09:49:18.443Z,37.61
2023-04-21T09:56:53.937Z,36.97
2023-04-21T09:59:27.723Z,36.71
2023-04-21T10:01:56.708Z,36.77
2023-04-21T10:04:25.776Z,36.81
2023-04-21T10:06:53.487Z,36.74
2023-04-21T10:09:24.197Z,36.65
2023-04-21T10:11:52.322Z,36.79
2023-04-21T10:14:19.422Z,36.48
2023-04-21T10:16:57.122Z,36.83
2023-04-21T10:19:28.201Z,37.00
2023-04-21T10:21:57.929Z,37.19
2023-04-21T10:24:28.459Z,37.17
2023-04-21T10:26:59.700Z,36.88
2023-04-21T10:29:43.700Z,36.56
2023-04-21T10:32:32.665Z,35.74
2023-04-21T10:34:59.371Z,36.24
2023-04-21T10:37:26.136Z,36.46
2023-04-21T10:39:54.843Z,36.72
2023-04-21T10:42:29.948Z,36.58
2023-04-21T10:44:56.664Z,36.39
2023-04-21T10:47:41.330Z,36.45
2023-04-21T10:50:34.273Z,36.73
2023-04-21T10:53:09.639Z,36.97
2023-04-21T10:55:36.579Z,36.95
2023-04-21T10:58:05.962Z,36.56
2023-04-21T11:00:33.118Z,36.05
2023-04-21T11:03:05.980Z,36.25
2023-04-21T11:05:36.533Z,36.41
2023-04-21T11:08:08.794Z,36.33
2023-04-21T11:11:01.785Z,36.02
2023-04-21T11:13:37.905Z,35.69
2023-04-21T11:16:08.489Z,35.58
2023-04-21T11:22:20.869Z,35.02
2023-04-21T11:24:50.729Z,35.06
2023-04-21T11:27:18.129Z,35.35
2023-04-21T11:29:46.576Z,35.30
2023-04-21T11:32:13.901Z,34.88
2023-04-21T11:34:41.067Z,34.83
2023-04-21T11:37:15.346Z,34.32
2023-04-21T11:39:43.765Z,34.55
2023-04-21T11:42:11.912Z,34.47
2023-04-21T11:44:41.986Z,34.37
2023-04-21T11:47:20.582Z,33.98
2023-04-21T11:49:58.894Z,33.69
2023-04-21T11:52:37.573Z,33.74
2023-04-21T11:55:15.452Z,33.74
2023-04-21T11:57:42.489Z,33.60
2023-04-21T12:00:14.631Z,33.12
2023-04-21T12:02:43.197Z,32.93
2023-04-21T12:05:12.023Z,33.40
2023-04-21T12:07:43.748Z,33.08
2023-04-21T12:10:18.278Z,33.33
2023-04-21T12:12:46.056Z,33.51
2023-04-21T12:15:19.183Z,33.42
2023-04-21T12:17:47.913Z,33.26
2023-04-21T12:20:25.618Z,33.08
2023-04-21T12:22:53.528Z,32.72
2023-04-21T12:25:20.580Z,32.00
2023-04-21T12:27:58.675Z,31.35
2023-04-21T12:30:25.430Z,31.65
2023-04-21T12:32:54.442Z,31.82
2023-04-21T12:35:22.229Z,31.50
2023-04-21T12:37:48.945Z,32.01
2023-04-21T12:40:16.194Z,32.15
2023-04-21T12:42:42.955Z,32.24
2023-04-21T12:45:09.982Z,32.32
2023-04-21T12:47:37.641Z,32.35
2023-04-21T12:50:05.033Z,31.93
2023-04-21T12:52:31.763Z,31.31
2023-04-21T12:54:58.437Z,31.42
2023-04-21T12:57:25.395Z,31.36
2023-04-21T12:59:52.111Z,30.67
2023-04-21T13:02:19.210Z,30.86
2023-04-21T13:04:46.098Z,30.92
2023-04-21T13:07:13.001Z,31.32
2023-04-21T13:09:39.679Z,31.61
2023-04-21T13:12:06.603Z,31.61
2023-04-21T13:14:33.350Z,31.26
2023-04-21T13:17:00.324Z,30.80
2023-04-21T13:19:28.683Z,30.85
2023-04-21T13:21:56.474Z,31.05
2023-04-21T13:24:23.341Z,30.70
2023-04-21T13:26:50.101Z,31.10
2023-04-21T13:29:17.058Z,30.75
2023-04-21T13:31:43.761Z,30.96
2023-04-21T13:34:10.598Z,30.87
2023-04-21T13:36:37.351Z,30.65
2023-04-21T13:39:07.431Z,30.62
2023-04-21T13:41:35.183Z,30.44
2023-04-21T13:44:02.001Z,30.37
2023-04-21T13:46:30.200Z,30.54
2023-04-21T13:48:57.194Z,30.34
2023-04-21T13:51:24.008Z,30.45
2023-04-21T13:53:50.825Z,29.93
2023-04-21T13:56:17.796Z,29.98
2023-04-21T13:58:44.587Z,29.99
2023-04-21T14:01:13.374Z,30.16
2023-04-21T14:03:41.435Z,30.21
2023-04-21T14:06:08.475Z,29.82
2023-04-21T14:08:35.982Z,29.93
2023-04-21T14:11:03.676Z,30.00
2023-04-21T14:16:01.061Z,30.07
2023-04-21T14:18:27.833Z,29.82
2023-04-21T14:20:54.555Z,29.64
2023-04-21T14:23:21.218Z,29.49
2023-04-21T14:25:47.970Z,29.71
2023-04-21T14:28:15.063Z,29.29
2023-04-21T14:30:43.242Z,29.21
2023-04-21T14:33:10.227Z,29.15
2023-04-21T14:35:37.789Z,29.15
2023-04-21T14:38:04.772Z,28.72
2023-04-21T14:40:31.514Z,28.78
2023-04-21T14:42:58.273Z,28.94
2023-04-21T14:45:25.131Z,28.33
2023-04-21T14:47:51.970Z,28.13
2023-04-21T14:50:19.024Z,27.84
2023-04-21T14:52:49.387Z,28.22
2023-04-21T14:55:17.260Z,28.32
2023-04-21T14:57:44.102Z,28.54
2023-04-21T15:00:11.595Z,27.99
2023-04-21T15:02:39.711Z,28.11
2023-04-21T15:05:08.884Z,27.82
2023-04-21T15:07:36.218Z,27.47
2023-04-21T15:10:03.315Z,27.51
2023-04-21T15:12:30.173Z,27.38
2023-04-21T15:14:56.936Z,27.34
2023-04-21T15:17:23.865Z,27.46
2023-04-21T15:19:51.008Z,27.44
2023-04-21T15:22:17.777Z,27.44
2023-04-21T15:24:44.500Z,27.52
2023-04-21T15:27:11.240Z,27.68
2023-04-21T15:29:38.164Z,27.86
2023-04-21T15:32:05.069Z,27.77
2023-04-21T15:34:31.772Z,27.71
2023-04-21T15:36:58.498Z,27.88
2023-04-21T15:39:25.183Z,27.77
2023-04-21T15:41:53.356Z,28.08
2023-04-21T15:44:20.143Z,27.73
2023-04-21T15:46:47.055Z,27.81
2023-04-21T15:49:13.894Z,27.41
2023-04-21T15:51:41.108Z,27.77
2023-04-21T15:54:07.888Z,27.75
2023-04-21T15:56:34.578Z,27.60
2023-04-21T15:59:01.394Z,27.32
2023-04-21T16:01:28.564Z,27.58
2023-04-21T16:03:55.831Z,27.55
2023-04-21T16:06:24.317Z,27.79
2023-04-21T16:08:51.208Z,27.82
2023-04-21T16:11:18.031Z,27.75
2023-04-21T16:13:44.818Z,27.85
2023-04-21T16:16:11.551Z,27.72
2023-04-21T16:18:38.602Z,27.81
2023-04-21T16:21:05.542Z,28.17
2023-04-21T16:23:32.592Z,28.08
2023-04-21T16:25:59.341Z,28.24
2023-04-21T16:28:26.215Z,28.59
2023-04-21T16:30:53.033Z,28.64
2023-04-21T16:33:19.717Z,28.86
2023-04-21T16:35:46.662Z,28.98
2023-04-21T16:38:13.664Z,29.06
2023-04-21T16:40:40.512Z,29.31
2023-04-21T16:43:07.262Z,29.83
2023-04-21T16:45:34.102Z,29.73
2023-04-21T16:48:00.889Z,30.09
2023-04-21T16:50:27.659Z,30.33
2023-04-21T16:52:54.427Z,30.19
2023-04-21T16:55:21.176Z,30.70
2023-04-21T16:57:48.209Z,30.79
2023-04-21T17:00:15.169Z,31.12
2023-04-21T17:02:41.932Z,31.47
2023-04-21T17:05:09.271Z,31.79
2023-04-21T17:07:36.028Z,32.17
2023-04-21T17:10:02.883Z,32.28
2023-04-21T17:12:29.603Z,32.35
2023-04-21T17:14:56.298Z,32.76
2023-04-21T17:17:23.169Z,32.95
2023-04-21T17:19:50.145Z,32.97
2023-04-21T17:22:16.802Z,33.17
2023-04-21T17:24:52.307Z,33.30
2023-04-21T17:27:20.938Z,33.29
2023-04-21T17:29:47.987Z,33.45
2023-04-21T17:32:14.783Z,33.63
2023-04-21T17:34:41.856Z,33.81
2023-04-21T17:37:08.550Z,33.76
2023-04-21T17:39:35.464Z,34.01
2023-04-21T17:42:02.787Z,34.06
2023-04-21T17:44:29.942Z,34.32
2023-04-21T17:46:58.995Z,34.59
2023-04-21T17:49:26.426Z,34.93
2023-04-21T17:51:53.298Z,35.06
2023-04-21T17:54:20.151Z,35.27
2023-04-21T17:56:47.071Z,35.50
2023-04-21T17:59:13.982Z,35.40
2023-04-21T18:01:40.973Z,35.51
2023-04-21T18:04:08.136Z,35.70
2023-04-21T18:06:36.774Z,35.96
2023-04-21T18:09:05.170Z,35.96
2023-04-21T18:11:32.052Z,36.26
2023-04-21T18:13:58.924Z,36.52
2023-04-21T18:16:26.478Z,36.72
2023-04-21T18:18:53.513Z,36.65
2023-04-21T18:21:21.022Z,36.88
2023-04-21T18:23:47.742Z,36.97
2023-04-21T18:26:14.407Z,36.91
2023-04-21T18:28:41.079Z,36.93
2023-04-21T18:31:07.854Z,37.27
2023-04-21T18:33:34.753Z,37.23
2023-04-21T18:36:01.784Z,37.36
2023-04-21T18:38:28.434Z,37.36
2023-04-21T18:40:55.670Z,37.63
2023-04-21T18:43:24.859Z,37.70
2023-04-21T18:45:51.583Z,37.85
2023-04-21T18:48:18.360Z,37.97
2023-04-21T18:50:45.126Z,38.10
2023-04-21T18:53:14.921Z,38.20
2023-04-21T18:55:41.560Z,38.44
2023-04-21T18:58:08.221Z,38.35
2023-04-21T19:00:37.685Z,38.44
2023-04-21T19:03:08.538Z,38.54
2023-04-21T19:05:36.743Z,38.56
2023-04-21T19:08:03.518Z,38.75
2023-04-21T19:10:30.254Z,38.56
2023-04-21T19:12:56.938Z,38.76
2023-04-21T19:15:23.591Z,38.91
2023-04-21T19:17:50.316Z,39.07
2023-04-21T19:20:18.097Z,39.15
2023-04-21T19:22:44.975Z,39.30
2023-04-21T19:25:12.132Z,39.44
2023-04-21T19:27:40.303Z,39.83
2023-04-21T19:30:07.915Z,39.82
2023-04-21T19:32:34.665Z,40.10
2023-04-21T19:35:01.910Z,40.44
2023-04-21T19:37:28.650Z,40.21
2023-04-21T19:39:56.062Z,40.56
2023-04-21T19:42:22.806Z,40.85
2023-04-21T19:44:49.652Z,40.87
2023-04-21T19:47:16.617Z,40.63
2023-04-21T19:49:43.307Z,40.86
2023-04-21T19:52:10.074Z,41.22
2023-04-21T19:54:36.961Z,40.84
2023-04-21T19:57:03.785Z,40.92
2023-04-21T19:59:31.057Z,40.95
2023-04-21T20:01:58.804Z,40.89
2023-04-21T20:04:25.830Z,41.36
2023-04-21T20:06:52.971Z,41.16
2023-04-21T20:09:19.795Z,41.13
2023-04-21T20:11:46.493Z,41.42
2023-04-21T20:14:13.267Z,41.66
2023-04-21T20:16:40.049Z,42.08
2023-04-21T20:19:06.819Z,41.76
2023-04-21T20:21:33.558Z,41.96
2023-04-21T20:24:00.894Z,42.07
2023-04-21T20:26:27.622Z,42.27
2023-04-21T20:28:54.305Z,42.42
2023-04-21T20:31:24.025Z,42.46
2023-04-21T20:33:51.176Z,42.28
2023-04-21T20:36:18.493Z,42.52
2023-04-21T20:38:46.486Z,42.55
2023-04-21T20:41:17.793Z,42.65
2023-04-21T20:43:45.539Z,42.79
2023-04-21T20:46:12.680Z,42.91
2023-04-21T20:48:39.429Z,43.06
2023-04-21T20:51:06.094Z,43.12
2023-04-21T20:53:33.038Z,43.54
2023-04-21T20:55:59.922Z,43.60
2023-04-21T20:58:26.685Z,43.58
2023-04-21T21:00:53.632Z,44.00
2023-04-21T21:03:20.924Z,44.01
2023-04-21T21:05:48.029Z,44.06
2023-04-21T21:08:15.167Z,44.00
2023-04-21T21:10:42.524Z,44.31
2023-04-21T21:13:09.206Z,44.18
2023-04-21T21:15:35.915Z,44.36
2023-04-21T21:18:03.390Z,44.63
2023-04-21T21:20:30.295Z,44.66
2023-04-21T21:22:56.968Z,44.75
2023-04-21T21:25:23.681Z,44.91
2023-04-21T21:27:50.381Z,44.76
2023-04-21T21:30:17.157Z,44.91
2023-04-21T21:32:43.973Z,45.11
2023-04-21T21:35:12.058Z,44.44
2023-04-21T21:37:39.828Z,44.68
2023-04-21T21:40:07.390Z,44.83
2023-04-21T21:42:34.177Z,44.32
2023-04-21T21:45:01.402Z,44.82
2023-04-21T21:47:28.276Z,44.88
2023-04-21T21:49:56.193Z,45.06
2023-04-21T21:52:22.941Z,45.02
2023-04-21T21:54:49.718Z,45.17
2023-04-21T21:57:16.929Z,45.35
2023-04-21T21:59:43.818Z,44.99
2023-04-21T22:02:10.772Z,45.07
2023-04-21T22:04:37.891Z,44.79
2023-04-21T22:07:05.230Z,44.94
2023-04-21T22:09:32.288Z,45.11
2023-04-21T22:11:59.273Z,45.15
2023-04-21T22:14:26.060Z,45.13
2023-04-21T22:16:53.363Z,45.53
2023-04-21T22:19:20.789Z,45.41
2023-04-21T22:21:47.949Z,45.77
2023-04-21T22:24:14.953Z,45.78
2023-04-21T22:26:42.955Z,45.84
2023-04-21T22:29:09.723Z,45.57
2023-04-21T22:31:37.072Z,45.96
2023-04-21T22:34:04.510Z,45.79
2023-04-21T22:36:32.691Z,46.08
2023-04-21T22:38:59.614Z,46.20
2023-04-21T22:41:27.478Z,46.33
2023-04-21T22:43:54.472Z,45.87
2023-04-21T22:46:21.379Z,45.72
2023-04-21T22:48:48.595Z,45.66
2023-04-21T22:51:15.515Z,45.89
2023-04-21T22:53:42.371Z,46.03
2023-04-21T22:56:09.043Z,46.14
2023-04-21T22:58:35.940Z,46.03
2023-04-21T23:01:03.091Z,45.84
2023-04-21T23:03:31.205Z,46.24
2023-04-21T23:05:58.574Z,46.23
2023-04-21T23:08:25.250Z,46.29
2023-04-21T23:10:52.814Z,46.86
2023-04-21T23:13:19.602Z,46.50
2023-04-21T23:15:46.359Z,46.78
2023-04-21T23:18:13.043Z,46.64
2023-04-21T23:20:39.826Z,46.62
2023-04-21T23:23:06.788Z,46.54
2023-04-21T23:25:33.509Z,46.77
2023-04-21T23:28:00.494Z,46.57
2023-04-21T23:30:27.189Z,46.77
2023-04-21T23:32:53.994Z,46.69
2023-04-21T23:35:20.774Z,46.94
2023-04-21T23:37:47.401Z,47.36
2023-04-21T23:40:14.276Z,47.31
2023-04-21T23:42:41.150Z,46.85
2023-04-21T23:45:08.479Z,46.97
2023-04-21T23:47:35.172Z,47.17
2023-04-21T23:50:02.127Z,47.29
2023-04-21T23:52:28.959Z,47.02
2023-04-21T23:54:55.651Z,46.94
2023-04-21T23:57:22.340Z,46.93
2023-04-21T23:59:49.329Z,47.28
